createdAt,value
2023-04-15T00:00:02.611Z,3.63
2023-04-15T00:02:40.692Z,4.22
2023-04-15T00:05:09.104Z,4.43
2023-04-15T00:07:36.984Z,4.03
2023-04-15T00:10:05.836Z,3.67
2023-04-15T00:12:33.504Z,3.45
2023-04-15T00:15:01.842Z,3.83
2023-04-15T00:17:29.544Z,3.45
2023-04-15T00:19:57.388Z,3.00
2023-04-15T00:22:25.034Z,3.67
2023-04-15T00:24:54.496Z,3.75
2023-04-15T00:27:22.184Z,3.55
2023-04-15T00:29:49.869Z,2.90
2023-04-15T00:32:17.504Z,3.15
2023-04-15T00:34:45.785Z,4.10
2023-04-15T00:37:13.775Z,3.15
2023-04-15T00:39:41.538Z,3.13
2023-04-15T00:42:09.730Z,2.85
2023-04-15T00:44:37.783Z,2.35
2023-04-15T00:47:06.361Z,3.38
2023-04-15T00:49:34.356Z,2.78
2023-04-15T00:52:02.650Z,2.88
2023-04-15T00:54:31.678Z,2.83
2023-04-15T00:57:00.957Z,3.20
2023-04-15T00:59:29.827Z,2.22
2023-04-15T01:01:57.753Z,2.00
2023-04-15T01:04:26.492Z,2.67
2023-04-15T01:06:55.380Z,2.80
2023-04-15T01:09:23.159Z,2.22
2023-04-15T01:11:52.087Z,2.22
2023-04-15T01:14:20.369Z,2.25
2023-04-15T01:16:48.365Z,2.10
2023-04-15T01:19:18.435Z,1.80
2023-04-15T01:21:46.446Z,2.63
2023-04-15T01:24:16.699Z,2.28
2023-04-15T01:26:44.766Z,2.15
2023-04-15T01:29:12.708Z,2.08
2023-04-15T01:31:40.326Z,1.95
2023-04-15T01:34:07.973Z,2.20
2023-04-15T01:36:35.876Z,2.20
2023-04-15T01:39:04.214Z,1.83
2023-04-15T01:41:31.950Z,2.10
2023-04-15T01:43:59.549Z,1.83
2023-04-15T01:46:27.904Z,1.63
2023-04-15T01:48:55.942Z,1.55
2023-04-15T01:51:23.846Z,1.40
2023-04-15T01:53:52.538Z,1.77
2023-04-15T01:56:20.424Z,2.30
2023-04-15T01:58:48.405Z,1.50
2023-04-15T02:01:22.512Z,1.95
2023-04-15T02:03:50.697Z,1.85
2023-04-15T02:06:18.734Z,1.98
2023-04-15T02:08:46.600Z,1.83
2023-04-15T02:11:14.296Z,1.42
2023-04-15T02:13:42.205Z,1.85
2023-04-15T02:16:20.321Z,1.45
2023-04-15T02:18:48.254Z,1.58
2023-04-15T02:21:15.944Z,1.48
2023-04-15T02:23:44.173Z,1.60
2023-04-15T02:26:14.601Z,1.45
2023-04-15T02:28:42.317Z,1.60
2023-04-15T02:31:10.127Z,1.48
2023-04-15T02:33:38.119Z,1.85
2023-04-15T02:36:08.138Z,1.63
2023-04-15T02:38:36.235Z,1.30
2023-04-15T02:41:03.793Z,1.33
2023-04-15T02:43:31.886Z,1.60
2023-04-15T02:46:01.129Z,1.23
2023-04-15T02:48:29.096Z,1.50
2023-04-15T02:51:16.045Z,1.60
2023-04-15T02:53:43.724Z,1.33
2023-04-15T02:56:11.997Z,1.60
2023-04-15T02:58:40.979Z,1.45
2023-04-15T03:01:12.145Z,1.52
2023-04-15T03:03:41.155Z,1.30
2023-04-15T03:06:09.263Z,1.33
2023-04-15T03:08:37.735Z,1.15
2023-04-15T03:11:09.288Z,1.52
2023-04-15T03:13:39.801Z,1.15
2023-04-15T03:16:14.194Z,1.25
2023-04-15T03:18:42.934Z,1.20
2023-04-15T03:21:11.012Z,1.60
2023-04-15T03:23:39.767Z,1.33
2023-04-15T03:26:07.607Z,1.40
2023-04-15T03:28:35.415Z,1.75
2023-04-15T03:31:03.178Z,1.67
2023-04-15T03:33:31.377Z,1.08
2023-04-15T03:35:59.231Z,1.35
2023-04-15T03:38:27.423Z,1.30
2023-04-15T03:40:55.339Z,1.20
2023-04-15T03:43:22.961Z,1.30
2023-04-15T03:45:50.907Z,1.17
2023-04-15T03:48:18.526Z,1.20
2023-04-15T03:50:46.598Z,1.00
2023-04-15T03:53:15.876Z,1.30
2023-04-15T03:55:44.099Z,1.40
2023-04-15T03:58:13.343Z,1.50
2023-04-15T04:00:41.759Z,1.52
2023-04-15T04:03:09.837Z,1.40
2023-04-15T04:05:39.313Z,1.35
2023-04-15T04:08:07.408Z,1.10
2023-04-15T04:10:35.735Z,1.20
2023-04-15T04:13:03.596Z,1.38
2023-04-15T04:15:32.044Z,1.38
2023-04-15T04:17:59.802Z,1.65
2023-04-15T04:20:27.613Z,1.20
2023-04-15T04:22:55.373Z,1.58
2023-04-15T04:25:23.130Z,1.17
2023-04-15T04:27:50.961Z,1.20
2023-04-15T04:30:18.863Z,1.20
2023-04-15T04:32:46.782Z,1.00
2023-04-15T04:35:14.488Z,1.00
2023-04-15T04:37:42.268Z,1.30
2023-04-15T04:40:10.888Z,1.27
2023-04-15T04:42:39.970Z,1.30
2023-04-15T04:45:10.719Z,1.45
2023-04-15T04:47:41.465Z,1.60
2023-04-15T04:50:09.561Z,1.38
2023-04-15T04:52:37.554Z,1.20
2023-04-15T04:55:06.776Z,1.25
2023-04-15T04:57:36.283Z,1.27
2023-04-15T05:00:05.233Z,1.38
2023-04-15T05:02:34.906Z,1.20
2023-04-15T05:05:02.899Z,1.35
2023-04-15T05:07:30.834Z,1.15
2023-04-15T05:10:01.336Z,1.45
2023-04-15T05:12:29.059Z,1.50
2023-04-15T05:14:56.948Z,1.25
2023-04-15T05:17:24.928Z,1.27
2023-04-15T05:19:54.115Z,0.93
2023-04-15T05:22:21.776Z,1.20
2023-04-15T05:24:49.425Z,1.30
2023-04-15T05:27:17.301Z,1.40
2023-04-15T05:29:44.985Z,1.10
2023-04-15T05:32:12.720Z,1.00
2023-04-15T05:34:40.891Z,1.20
2023-04-15T05:37:08.876Z,1.23
2023-04-15T05:39:36.771Z,0.90
2023-04-15T05:42:06.177Z,0.93
2023-04-15T05:44:34.100Z,1.30
2023-04-15T05:47:03.763Z,1.00
2023-04-15T05:49:31.455Z,1.23
2023-04-15T05:51:59.328Z,1.27
2023-04-15T05:54:28.120Z,1.90
2023-04-15T05:56:57.823Z,0.82
2023-04-15T05:59:25.751Z,1.23
2023-04-15T06:01:54.067Z,1.10
2023-04-15T06:04:22.199Z,1.15
2023-04-15T06:06:49.875Z,1.08
2023-04-15T06:09:17.862Z,1.10
2023-04-15T06:11:49.671Z,0.98
2023-04-15T06:14:17.266Z,1.27
2023-04-15T06:16:44.997Z,0.95
2023-04-15T06:19:12.926Z,0.75
2023-04-15T06:21:41.126Z,0.88
2023-04-15T06:24:08.677Z,1.10
2023-04-15T06:26:39.545Z,1.30
2023-04-15T06:29:07.172Z,0.88
2023-04-15T06:31:34.781Z,1.20
2023-04-15T06:34:03.236Z,1.00
2023-04-15T06:36:30.778Z,1.40
2023-04-15T06:38:58.501Z,0.93
2023-04-15T06:41:26.947Z,1.35
2023-04-15T06:43:54.538Z,1.20
2023-04-15T06:46:22.401Z,1.20
2023-04-15T06:48:50.034Z,1.10
2023-04-15T06:51:17.732Z,1.20
2023-04-15T06:53:45.365Z,1.10
2023-04-15T06:56:13.063Z,1.02
2023-04-15T06:58:40.822Z,1.20
2023-04-15T07:01:11.800Z,1.00
2023-04-15T07:03:39.575Z,1.00
2023-04-15T07:06:10.482Z,1.00
2023-04-15T07:08:40.991Z,0.90
2023-04-15T07:11:09.157Z,0.80
2023-04-15T07:13:37.012Z,0.95
2023-04-15T07:16:05.021Z,0.90
2023-04-15T07:18:32.625Z,0.90
2023-04-15T07:21:00.238Z,0.90
2023-04-15T07:23:27.916Z,1.15
2023-04-15T07:25:55.522Z,1.00
2023-04-15T07:28:23.162Z,1.00
2023-04-15T07:30:50.855Z,1.08
2023-04-15T07:33:18.393Z,1.10
2023-04-15T07:35:46.361Z,1.08
2023-04-15T07:38:13.914Z,0.82
2023-04-15T07:40:42.656Z,0.80
2023-04-15T07:43:13.984Z,0.93
2023-04-15T07:45:41.771Z,0.82
2023-04-15T07:48:09.488Z,1.00
2023-04-15T07:50:37.386Z,0.90
2023-04-15T07:53:05.894Z,0.82
2023-04-15T07:55:33.411Z,0.82
2023-04-15T07:58:01.184Z,0.85
2023-04-15T08:00:29.010Z,0.90
2023-04-15T08:02:59.574Z,1.02
2023-04-15T08:05:27.458Z,0.90
2023-04-15T08:07:55.136Z,1.27
2023-04-15T08:10:23.146Z,0.80
2023-04-15T08:12:54.457Z,1.00
2023-04-15T08:15:22.471Z,0.95
2023-04-15T08:17:50.155Z,1.25
2023-04-15T08:20:17.880Z,1.13
2023-04-15T08:22:45.636Z,1.10
2023-04-15T08:25:13.302Z,0.85
2023-04-15T08:27:40.856Z,0.65
2023-04-15T08:30:09.699Z,0.93
2023-04-15T08:32:37.697Z,0.80
2023-04-15T08:35:05.745Z,1.45
2023-04-15T08:37:33.418Z,0.98
2023-04-15T08:40:00.964Z,0.90
2023-04-15T08:42:33.250Z,1.33
2023-04-15T08:45:02.181Z,1.45
2023-04-15T08:47:32.469Z,1.17
2023-04-15T08:50:04.532Z,1.42
2023-04-15T08:52:32.481Z,0.90
2023-04-15T08:55:03.408Z,0.95
2023-04-15T08:57:32.038Z,1.05
2023-04-15T09:00:00.954Z,1.23
2023-04-15T09:02:29.500Z,1.10
2023-04-15T09:04:57.895Z,1.55
2023-04-15T09:07:26.057Z,1.10
2023-04-15T09:09:53.616Z,1.17
2023-04-15T09:12:22.091Z,1.10
2023-04-15T09:14:49.763Z,1.08
2023-04-15T09:17:26.162Z,1.27
2023-04-15T09:20:19.168Z,1.20
2023-04-15T09:22:50.261Z,0.80
2023-04-15T09:25:24.630Z,0.90
2023-04-15T09:27:54.852Z,0.83
2023-04-15T09:30:22.871Z,1.10
2023-04-15T09:33:01.105Z,1.10
2023-04-15T09:35:29.494Z,1.17
2023-04-15T09:38:09.084Z,1.33
2023-04-15T09:40:39.290Z,1.38
2023-04-15T09:43:09.665Z,0.90
2023-04-15T09:45:37.704Z,1.15
2023-04-15T09:48:29.142Z,1.10
2023-04-15T09:51:00.575Z,1.05
2023-04-15T09:53:31.190Z,1.10
2023-04-15T09:56:03.163Z,1.30
2023-04-15T09:58:33.824Z,2.40
2023-04-15T10:01:05.263Z,2.20
2023-04-15T10:03:38.537Z,1.88
2023-04-15T10:06:06.445Z,2.33
2023-04-15T10:08:35.520Z,1.90
2023-04-15T10:11:03.699Z,1.83
2023-04-15T10:13:37.586Z,1.98
2023-04-15T10:16:13.395Z,2.00
2023-04-15T10:18:46.855Z,2.00
2023-04-15T10:21:18.987Z,2.58
2023-04-15T10:23:48.052Z,2.40
2023-04-15T10:26:17.927Z,2.28
2023-04-15T10:28:47.453Z,2.50
2023-04-15T10:31:15.809Z,2.00
2023-04-15T10:33:49.065Z,2.50
2023-04-15T10:36:19.774Z,2.92
2023-04-15T10:38:47.757Z,2.67
2023-04-15T10:41:30.124Z,3.10
2023-04-15T10:44:03.453Z,2.58
2023-04-15T10:46:42.728Z,3.28
2023-04-15T10:49:15.643Z,3.13
2023-04-15T10:51:47.782Z,3.15
2023-04-15T10:54:26.338Z,3.40
2023-04-15T10:57:15.598Z,3.08
2023-04-15T11:00:11.532Z,2.92
2023-04-15T11:03:08.570Z,3.40
2023-04-15T11:05:42.366Z,2.80
2023-04-15T11:08:11.341Z,4.00
2023-04-15T11:10:38.808Z,4.05
2023-04-15T11:13:12.687Z,4.25
2023-04-15T11:15:43.080Z,4.20
2023-04-15T11:18:12.792Z,5.28
2023-04-15T11:20:45.594Z,5.15
2023-04-15T11:23:15.736Z,5.28
2023-04-15T11:25:44.385Z,5.68
2023-04-15T11:28:16.213Z,4.70
2023-04-15T11:30:44.002Z,4.97
2023-04-15T11:33:14.004Z,5.55
2023-04-15T11:35:42.910Z,9.43
2023-04-15T11:38:15.701Z,16.85
2023-04-15T11:40:47.014Z,16.25
2023-04-15T11:43:21.734Z,15.68
2023-04-15T11:45:57.669Z,16.17
2023-04-15T11:48:29.228Z,15.15
2023-04-15T11:51:03.495Z,15.23
2023-04-15T11:53:44.991Z,14.90
2023-04-15T11:56:20.562Z,15.20
2023-04-15T11:58:51.027Z,13.15
2023-04-15T12:01:21.896Z,14.23
2023-04-15T12:03:50.761Z,15.07
2023-04-15T12:06:22.054Z,13.38
2023-04-15T12:09:16.006Z,13.50
2023-04-15T12:11:57.611Z,13.25
2023-04-15T12:14:29.705Z,12.52
2023-04-15T12:17:07.462Z,12.52
2023-04-15T12:19:50.385Z,12.10
2023-04-15T12:22:18.844Z,11.43
2023-04-15T12:24:48.935Z,12.10
2023-04-15T12:27:17.989Z,11.43
2023-04-15T12:29:45.872Z,10.68
2023-04-15T12:32:16.503Z,11.90
2023-04-15T12:34:51.079Z,11.32
2023-04-15T12:37:19.907Z,10.20
2023-04-15T12:39:49.793Z,11.13
2023-04-15T12:42:19.786Z,9.68
2023-04-15T12:44:50.388Z,10.10
2023-04-15T12:47:18.360Z,10.77
2023-04-15T12:49:46.332Z,10.73
2023-04-15T12:52:14.181Z,10.95
2023-04-15T12:54:42.001Z,10.43
2023-04-15T12:57:09.525Z,11.10
2023-04-15T12:59:37.914Z,10.35
2023-04-15T13:02:05.792Z,10.55
2023-04-15T13:04:33.722Z,10.60
2023-04-15T13:07:02.986Z,10.15
2023-04-15T13:09:31.322Z,10.88
2023-04-15T13:11:59.485Z,10.85
2023-04-15T13:14:30.079Z,10.65
2023-04-15T13:16:58.341Z,10.52
2023-04-15T13:19:27.136Z,9.30
2023-04-15T13:21:55.897Z,10.35
2023-04-15T13:24:23.618Z,9.77
2023-04-15T13:26:51.355Z,9.55
2023-04-15T13:29:19.055Z,11.00
2023-04-15T13:31:49.354Z,11.95
2023-04-15T13:34:17.008Z,11.35
2023-04-15T13:36:44.613Z,10.27
2023-04-15T13:39:12.377Z,10.93
2023-04-15T13:41:41.254Z,11.40
2023-04-15T13:44:09.710Z,11.20
2023-04-15T13:46:39.786Z,11.57
2023-04-15T13:49:07.404Z,11.68
2023-04-15T13:51:37.250Z,11.52
2023-04-15T13:54:05.428Z,10.93
2023-04-15T13:56:36.605Z,11.05
2023-04-15T13:59:04.802Z,10.07
2023-04-15T14:01:32.955Z,10.90
2023-04-15T14:04:01.102Z,10.45
2023-04-15T14:06:31.940Z,10.90
2023-04-15T14:09:00.358Z,10.00
2023-04-15T14:11:28.479Z,10.32
2023-04-15T14:13:56.280Z,10.93
2023-04-15T14:16:24.165Z,10.38
2023-04-15T14:18:52.085Z,10.10
2023-04-15T14:21:19.779Z,10.27
2023-04-15T14:23:47.728Z,9.70
2023-04-15T14:26:15.499Z,9.85
2023-04-15T14:28:45.272Z,9.23
2023-04-15T14:31:13.051Z,9.73
2023-04-15T14:33:41.203Z,9.45
2023-04-15T14:36:10.454Z,10.63
2023-04-15T14:38:40.951Z,9.38
2023-04-15T14:41:10.133Z,9.02
2023-04-15T14:43:39.458Z,9.15
2023-04-15T14:46:08.865Z,9.07
2023-04-15T14:48:36.527Z,9.73
2023-04-15T14:51:04.536Z,9.57
2023-04-15T14:53:32.243Z,10.27
2023-04-15T14:55:59.935Z,10.18
2023-04-15T14:58:27.648Z,9.32
2023-04-15T15:00:55.637Z,9.02
2023-04-15T15:03:24.144Z,9.15
2023-04-15T15:05:52.157Z,11.23
2023-04-15T15:08:19.946Z,10.90
2023-04-15T15:10:49.686Z,10.07
2023-04-15T15:13:20.150Z,11.80
2023-04-15T15:15:49.789Z,10.98
2023-04-15T15:18:19.509Z,10.13
2023-04-15T15:20:47.934Z,10.80
2023-04-15T15:23:15.731Z,10.75
2023-04-15T15:25:44.594Z,9.95
2023-04-15T15:28:12.986Z,11.32
2023-04-15T15:30:40.946Z,11.57
2023-04-15T15:33:08.902Z,10.27
2023-04-15T15:35:36.604Z,11.23
2023-04-15T15:38:04.161Z,10.68
2023-04-15T15:40:32.041Z,10.13
2023-04-15T15:42:59.856Z,10.65
2023-04-15T15:45:28.662Z,10.60
2023-04-15T15:47:58.097Z,9.95
2023-04-15T15:50:25.984Z,10.07
2023-04-15T15:52:53.837Z,10.68
2023-04-15T15:55:24.144Z,11.23
2023-04-15T15:57:52.310Z,11.02
2023-04-15T16:00:20.236Z,11.35
2023-04-15T16:05:18.718Z,11.70
2023-04-15T16:07:49.510Z,10.73
2023-04-15T16:10:17.958Z,11.27
2023-04-15T16:12:45.936Z,10.25
2023-04-15T16:15:13.982Z,11.45
2023-04-15T16:17:41.859Z,9.95
2023-04-15T16:20:10.338Z,10.45
2023-04-15T16:22:38.028Z,13.20
2023-04-15T16:25:06.306Z,11.63
2023-04-15T16:27:40.819Z,10.77
2023-04-15T16:30:17.923Z,12.07
2023-04-15T16:32:45.581Z,10.68
2023-04-15T16:35:14.654Z,12.15
2023-04-15T16:37:42.363Z,10.55
2023-04-15T16:40:10.936Z,10.57
2023-04-15T16:42:42.549Z,10.27
2023-04-15T16:45:11.187Z,10.25
2023-04-15T16:47:39.084Z,9.85
2023-04-15T16:50:11.713Z,10.10
2023-04-15T16:52:39.462Z,10.18
2023-04-15T16:55:10.028Z,8.80
2023-04-15T16:58:00.744Z,9.55
2023-04-15T17:00:26.177Z,8.57
2023-04-15T17:02:54.013Z,8.57
2023-04-15T17:05:21.782Z,8.82
2023-04-15T17:07:49.356Z,8.32
2023-04-15T17:10:17.869Z,9.23
2023-04-15T17:12:48.174Z,9.65
2023-04-15T17:15:15.825Z,9.48
2023-04-15T17:17:43.517Z,8.23
2023-04-15T17:20:12.757Z,8.85
2023-04-15T17:22:40.695Z,8.13
2023-04-15T17:25:09.049Z,8.07
2023-04-15T17:27:36.718Z,8.05
2023-04-15T17:30:05.076Z,8.98
2023-04-15T17:32:34.978Z,7.40
2023-04-15T17:35:06.672Z,7.03
2023-04-15T17:37:38.131Z,7.97
2023-04-15T17:40:08.728Z,7.10
2023-04-15T17:42:36.705Z,8.30
2023-04-15T17:45:04.686Z,7.78
2023-04-15T17:47:32.586Z,7.38
2023-04-15T17:50:00.494Z,6.82
2023-04-15T17:52:28.335Z,7.53
2023-04-15T17:54:56.301Z,6.78
2023-04-15T17:57:25.535Z,5.93
2023-04-15T17:59:56.262Z,7.38
2023-04-15T18:02:24.264Z,6.80
2023-04-15T18:04:52.142Z,7.00
2023-04-15T18:07:20.165Z,7.50
2023-04-15T18:09:48.096Z,7.05
2023-04-15T18:12:16.411Z,6.85
2023-04-15T18:14:44.236Z,6.22
2023-04-15T18:17:14.722Z,7.18
2023-04-15T18:19:46.044Z,6.38
2023-04-15T18:22:13.728Z,6.28
2023-04-15T18:24:41.956Z,6.50
2023-04-15T18:27:09.681Z,6.38
2023-04-15T18:29:37.085Z,6.15
2023-04-15T18:32:04.806Z,5.70
2023-04-15T18:34:32.556Z,6.30
2023-04-15T18:37:00.730Z,6.65
2023-04-15T18:39:28.609Z,6.72
2023-04-15T18:41:57.647Z,5.70
2023-04-15T18:44:25.280Z,6.38
2023-04-15T18:46:53.067Z,6.30
2023-04-15T18:49:21.115Z,6.20
2023-04-15T18:51:48.793Z,6.63
2023-04-15T18:54:16.922Z,7.05
2023-04-15T18:56:44.889Z,6.85
2023-04-15T18:59:29.173Z,8.35
2023-04-15T19:02:00.387Z,7.07
2023-04-15T19:04:29.496Z,7.15
2023-04-15T19:07:00.207Z,7.85
2023-04-15T19:09:29.405Z,7.07
2023-04-15T19:12:00.390Z,9.05
2023-04-15T19:14:28.408Z,7.82
2023-04-15T19:16:56.638Z,8.10
2023-04-15T19:19:24.397Z,7.40
2023-04-15T19:21:54.094Z,8.18
2023-04-15T19:24:22.363Z,8.20
2023-04-15T19:26:51.445Z,8.00
2023-04-15T19:29:22.100Z,8.77
2023-04-15T19:31:49.916Z,8.98
2023-04-15T19:34:19.643Z,8.65
2023-04-15T19:36:50.702Z,8.98
2023-04-15T19:39:18.993Z,7.85
2023-04-15T19:41:47.700Z,8.25
2023-04-15T19:44:15.673Z,7.70
2023-04-15T19:46:45.046Z,8.25
2023-04-15T19:49:12.913Z,8.02
2023-04-15T19:51:41.997Z,9.43
2023-04-15T19:54:09.728Z,8.00
2023-04-15T19:56:37.257Z,9.20
2023-04-15T19:59:04.973Z,8.27
2023-04-15T20:01:32.877Z,7.82
2023-04-15T20:04:00.743Z,7.95
2023-04-15T20:06:28.754Z,7.35
2023-04-15T20:08:56.376Z,7.50
2023-04-15T20:12:48.132Z,8.40
2023-04-15T20:14:17.952Z,6.35
2023-04-15T20:16:45.871Z,7.78
2023-04-15T20:19:14.292Z,7.50
2023-04-15T20:21:42.096Z,6.68
2023-04-15T20:24:09.878Z,6.40
2023-04-15T20:26:37.566Z,6.97
2023-04-15T20:29:06.075Z,5.93
2023-04-15T20:31:34.330Z,6.32
2023-04-15T20:34:01.991Z,6.45
2023-04-15T20:36:29.864Z,7.10
2023-04-15T20:38:57.431Z,6.18
2023-04-15T20:41:27.345Z,6.90
2023-04-15T20:43:55.012Z,6.07
2023-04-15T20:46:23.552Z,5.78
2023-04-15T20:48:52.990Z,6.10
2023-04-15T20:51:20.823Z,6.13
2023-04-15T20:53:49.530Z,6.50
2023-04-15T20:56:17.267Z,6.65
2023-04-15T20:58:44.935Z,5.40
2023-04-15T21:01:13.065Z,5.63
2023-04-15T21:03:40.911Z,5.90
2023-04-15T21:06:08.587Z,5.53
2023-04-15T21:08:36.353Z,6.10
2023-04-15T21:11:04.029Z,5.78
2023-04-15T21:13:31.465Z,5.80
2023-04-15T21:15:59.084Z,6.07
2023-04-15T21:18:26.764Z,6.22
2023-04-15T21:21:02.544Z,5.47
2023-04-15T21:23:31.166Z,5.35
2023-04-15T21:25:59.779Z,5.45
2023-04-15T21:28:30.116Z,5.57
2023-04-15T21:30:58.326Z,5.68
2023-04-15T21:33:26.424Z,9.02
2023-04-15T21:35:55.064Z,9.48
2023-04-15T21:38:23.478Z,10.90
2023-04-15T21:40:54.077Z,11.32
2023-04-15T21:43:23.283Z,11.27
2023-04-15T21:46:22.418Z,11.15
2023-04-15T21:48:38.929Z,10.80
2023-04-15T21:51:06.668Z,11.93
2023-04-15T21:53:35.216Z,11.13
2023-04-15T21:56:02.840Z,11.07
2023-04-15T21:58:30.798Z,11.52
2023-04-15T22:01:00.498Z,12.32
2023-04-15T22:03:34.432Z,12.23
2023-04-15T22:06:05.953Z,11.85
2023-04-15T22:08:44.644Z,11.45
2023-04-15T22:11:26.756Z,12.27
2023-04-15T22:13:55.386Z,12.38
2023-04-15T22:16:27.005Z,11.85
2023-04-15T22:18:55.757Z,11.52
2023-04-15T22:21:23.870Z,10.93
2023-04-15T22:23:52.554Z,10.68
2023-04-15T22:26:19.987Z,11.57
2023-04-15T22:28:47.514Z,10.32
2023-04-15T22:31:15.817Z,11.65
2023-04-15T22:33:43.777Z,10.10
2023-04-15T22:36:11.908Z,10.57
2023-04-15T22:38:39.728Z,10.13
2023-04-15T22:41:07.252Z,11.27
2023-04-15T22:43:34.910Z,10.95
2023-04-15T22:46:02.756Z,9.73
2023-04-15T22:48:30.689Z,10.73
2023-04-15T22:50:59.838Z,9.05
2023-04-15T22:53:27.602Z,9.77
2023-04-15T22:55:58.307Z,10.00
2023-04-15T22:58:29.033Z,10.25
2023-04-15T23:00:56.560Z,9.43
2023-04-15T23:03:24.536Z,9.27
2023-04-15T23:05:52.426Z,9.35
2023-04-15T23:08:20.039Z,9.70
2023-04-15T23:10:47.596Z,9.55
2023-04-15T23:13:15.804Z,8.75
2023-04-15T23:15:43.509Z,8.52
2023-04-15T23:18:11.501Z,8.77
2023-04-15T23:20:41.415Z,8.30
2023-04-15T23:23:09.032Z,9.02
2023-04-15T23:25:40.078Z,9.02
2023-04-15T23:28:08.004Z,9.02
2023-04-15T23:30:35.947Z,7.93
2023-04-15T23:33:04.810Z,7.72
2023-04-15T23:35:32.751Z,7.63
2023-04-15T23:38:00.372Z,7.60
2023-04-15T23:40:28.036Z,7.93
2023-04-15T23:42:55.889Z,7.55
2023-04-15T23:45:23.592Z,8.18
2023-04-15T23:47:51.299Z,7.22
2023-04-15T23:50:20.112Z,7.90
2023-04-15T23:52:47.776Z,7.47
2023-04-15T23:55:15.820Z,7.50
2023-04-15T23:57:46.030Z,8.18
